Time;durP1;ratioP1;P1;durP2;ratioP2;P2;SDS_P1;SDS_P2;PMS_P1;PMS_P2;Temp;Humidity;BMP_temperature;BMP_pressure;BME280_temperature;BME280_humidity;BME280_pressure;Samples;Min_cycle;Max_cycle;Signal;HPM_P1;HPM_P2
2022/10/21 00:01:37;;;;;;;10.43;6.65;;;8.10;99.90;;;;;;5023930;28;20064;-50
2022/10/21 00:04:04;;;;;;;11.05;5.82;;;8.10;99.90;;;;;;5026671;28;20107;-53
2022/10/21 00:06:29;;;;;;;10.85;6.50;;;8.10;99.90;;;;;;5024593;28;20033;-55
2022/10/21 00:08:55;;;;;;;9.18;6.00;;;8.10;99.90;;;;;;5016039;28;20036;-53
2022/10/21 00:11:20;;;;;;;11.15;6.53;;;8.10;99.90;;;;;;5025876;28;20038;-53
2022/10/21 00:13:46;;;;;;;11.95;6.80;;;8.10;99.90;;;;;;5028803;28;20040;-52
2022/10/21 00:16:14;;;;;;;12.32;7.22;;;8.10;99.90;;;;;;5012394;28;20440;-54
2022/10/21 00:18:41;;;;;;;11.90;6.97;;;8.10;99.90;;;;;;5028171;28;20084;-55
2022/10/21 00:21:13;;;;;;;13.32;7.63;;;8.00;99.90;;;;;;5011835;28;20030;-57
2022/10/21 00:23:39;;;;;;;15.70;7.82;;;8.00;99.90;;;;;;5012537;28;20065;-54
2022/10/21 00:26:05;;;;;;;12.63;7.43;;;8.00;99.90;;;;;;5026213;28;20053;-50
2022/10/21 00:28:31;;;;;;;13.30;7.60;;;8.00;99.90;;;;;;5028825;28;20063;-54
2022/10/21 00:30:57;;;;;;;14.30;7.90;;;8.00;99.90;;;;;;5010216;28;20033;-53
2022/10/21 00:33:23;;;;;;;11.95;8.13;;;7.90;99.90;;;;;;5028854;28;20022;-54
2022/10/21 00:35:57;;;;;;;11.48;6.68;;;7.90;99.90;;;;;;5008709;28;20052;-48
2022/10/21 00:38:22;;;;;;;14.13;7.10;;;7.90;99.90;;;;;;5028370;28;20053;-50
2022/10/21 00:40:48;;;;;;;12.45;7.10;;;7.90;99.90;;;;;;4990879;28;20026;-49
2022/10/21 00:43:13;;;;;;;11.05;6.53;;;7.90;99.90;;;;;;5028531;28;20065;-50
2022/10/21 00:45:39;;;;;;;11.57;7.32;;;7.90;99.90;;;;;;5008934;28;20105;-51
2022/10/21 00:48:30;;;;;;;11.88;7.03;;;7.90;99.90;;;;;;5026078;28;20408;-48
2022/10/21 00:50:58;;;;;;;8.50;5.47;;;7.90;99.90;;;;;;4993662;28;20031;-51
2022/10/21 00:53:25;;;;;;;11.48;6.78;;;7.90;99.90;;;;;;5032146;28;20108;-52
2022/10/21 00:55:55;;;;;;;11.18;6.13;;;8.00;99.90;;;;;;5011702;28;20034;-50
2022/10/21 00:58:25;;;;;;;13.65;5.85;;;8.00;99.90;;;;;;5032107;28;20034;-54
2022/10/21 01:00:54;;;;;;;10.30;6.45;;;8.00;99.90;;;;;;5011195;28;20034;-48
2022/10/21 01:03:22;;;;;;;11.73;6.13;;;8.00;99.90;;;;;;5030558;28;20562;-49
2022/10/21 01:05:48;;;;;;;11.88;7.07;;;8.10;99.90;;;;;;5009596;28;20062;-48
2022/10/21 01:08:14;;;;;;;12.48;6.38;;;8.10;99.90;;;;;;5031779;28;20067;-51
2022/10/21 01:10:40;;;;;;;11.35;6.57;;;8.10;99.90;;;;;;5012431;28;20456;-50
2022/10/21 01:13:20;;;;;;;11.45;5.57;;;8.10;99.90;;;;;;5010179;28;20306;-50
2022/10/21 01:15:51;;;;;;;10.57;6.63;;;8.20;99.90;;;;;;4992358;28;20054;-49
2022/10/21 01:18:35;;;;;;;11.07;6.43;;;8.20;99.90;;;;;;4992325;28;20038;-49
2022/10/21 01:21:08;;;;;;;9.52;5.63;;;8.20;99.90;;;;;;4993876;28;20030;-51
2022/10/21 01:24:08;;;;;;;11.52;5.63;;;8.20;99.90;;;;;;5018323;28;20057;-50
2022/10/21 01:26:45;;;;;;;12.52;6.38;;;8.20;99.90;;;;;;5002614;28;20041;-53
2022/10/21 01:29:38;;;;;;;13.32;6.68;;;8.20;99.90;;;;;;5031475;28;20025;-53
2022/10/21 01:32:27;;;;;;;12.02;7.18;;;8.20;99.90;;;;;;5009664;28;20019;-51
2022/10/21 01:35:14;;;;;;;9.82;7.03;;;8.20;99.90;;;;;;4981937;28;20034;-53
2022/10/21 01:37:46;;;;;;;11.60;6.70;;;8.20;99.90;;;;;;5004806;28;20120;-50
2022/10/21 01:40:18;;;;;;;9.07;5.45;;;8.20;99.90;;;;;;4991725;28;20800;-49
2022/10/21 01:42:53;;;;;;;10.75;6.63;;;8.20;99.90;;;;;;5005132;28;20076;-52
2022/10/21 01:45:41;;;;;;;12.07;7.28;;;8.20;99.90;;;;;;4991844;28;20096;-52
2022/10/21 01:48:17;;;;;;;10.48;6.40;;;8.20;99.90;;;;;;5008298;28;20042;-52
2022/10/21 01:50:55;;;;;;;10.02;6.65;;;8.20;99.90;;;;;;4991774;28;20096;-53
2022/10/21 01:53:25;;;;;;;9.07;6.10;;;8.20;99.90;;;;;;4991825;28;20493;-55
2022/10/21 01:55:52;;;;;;;7.80;5.65;;;8.20;99.90;;;;;;5030766;28;20044;-52
2022/10/21 01:58:21;;;;;;;10.13;6.88;;;8.30;99.90;;;;;;5029175;28;20033;-49
2022/10/21 02:00:49;;;;;;;12.43;7.00;;;8.20;99.90;;;;;;5010520;28;20030;-48
2022/10/21 02:03:20;;;;;;;10.80;6.75;;;8.20;99.90;;;;;;5009701;28;20118;-51
2022/10/21 02:05:46;;;;;;;12.57;7.50;;;8.20;99.90;;;;;;5006651;28;20038;-54
2022/10/21 02:08:11;;;;;;;12.43;6.85;;;8.30;99.90;;;;;;5009340;28;20025;-55
2022/10/21 02:10:41;;;;;;;10.05;6.55;;;8.20;99.90;;;;;;5029807;28;20125;-52
2022/10/21 02:13:10;;;;;;;12.18;7.55;;;8.30;99.90;;;;;;5007068;28;20032;-52
2022/10/21 02:15:38;;;;;;;12.95;7.10;;;8.30;99.90;;;;;;5030409;28;20107;-50
2022/10/21 02:18:08;;;;;;;12.88;7.57;;;8.30;99.90;;;;;;5009402;28;20022;-49
2022/10/21 02:20:41;;;;;;;11.60;6.63;;;8.30;99.90;;;;;;5030078;28;20033;-53
2022/10/21 02:23:10;;;;;;;10.32;7.25;;;8.40;99.90;;;;;;5006534;28;20114;-53
2022/10/21 02:25:39;;;;;;;11.52;8.40;;;8.40;99.90;;;;;;5030410;28;20048;-53
2022/10/21 02:28:05;;;;;;;13.68;7.82;;;8.40;99.90;;;;;;5008840;28;20089;-51
2022/10/21 02:30:39;;;;;;;13.63;7.68;;;8.40;99.90;;;;;;5029795;28;20662;-53
2022/10/21 02:33:19;;;;;;;10.63;7.45;;;8.40;99.90;;;;;;5005860;28;20380;-50
2022/10/21 02:35:56;;;;;;;11.57;6.63;;;8.40;99.90;;;;;;4990902;28;20666;-50
2022/10/21 02:38:36;;;;;;;14.15;7.18;;;8.40;99.90;;;;;;5007830;28;20096;-52
2022/10/21 02:41:06;;;;;;;14.43;8.70;;;8.50;99.90;;;;;;4990948;28;20027;-52
2022/10/21 02:43:50;;;;;;;12.57;7.32;;;8.40;99.90;;;;;;4990923;28;20469;-50
2022/10/21 02:46:16;;;;;;;13.15;7.88;;;8.40;99.90;;;;;;5026925;28;20079;-50
2022/10/21 02:48:46;;;;;;;14.23;8.80;;;8.40;99.90;;;;;;5010513;28;20030;-52
2022/10/21 02:51:12;;;;;;;11.23;7.80;;;8.40;99.90;;;;;;5026909;28;20021;-54
2022/10/21 02:53:38;;;;;;;13.68;8.30;;;8.40;99.90;;;;;;5010397;28;20064;-50
2022/10/21 02:56:04;;;;;;;15.50;9.00;;;8.40;99.90;;;;;;5029318;28;20060;-49
2022/10/21 02:58:29;;;;;;;13.25;8.05;;;8.40;99.90;;;;;;5008537;28;20397;-54
2022/10/21 03:00:55;;;;;;;15.10;8.40;;;8.40;99.90;;;;;;5029137;28;20040;-49
2022/10/21 03:03:21;;;;;;;16.70;8.60;;;8.40;99.90;;;;;;5008704;28;20413;-51
2022/10/21 03:05:46;;;;;;;11.25;7.50;;;8.40;99.90;;;;;;5029147;28;20041;-50
2022/10/21 03:08:12;;;;;;;12.77;7.75;;;8.40;99.90;;;;;;5008592;28;20121;-51
2022/10/21 03:10:37;;;;;;;15.25;8.50;;;8.50;99.90;;;;;;5028773;28;20573;-50
2022/10/21 03:13:03;;;;;;;12.98;7.82;;;8.50;99.90;;;;;;5007825;28;20034;-52
2022/10/21 03:15:29;;;;;;;13.63;6.90;;;8.50;99.90;;;;;;5028913;28;20033;-48
2022/10/21 03:17:54;;;;;;;12.77;7.72;;;8.50;99.90;;;;;;5007345;28;20418;-54
2022/10/21 03:20:20;;;;;;;13.13;7.43;;;8.60;99.90;;;;;;5044691;28;20041;-53
2022/10/21 03:22:45;;;;;;;10.88;6.97;;;8.60;99.90;;;;;;5008288;28;20544;-55
2022/10/21 03:25:11;;;;;;;12.20;7.05;;;8.60;99.90;;;;;;5015500;28;20033;-52
2022/10/21 03:27:37;;;;;;;12.85;7.07;;;8.70;99.90;;;;;;5015516;28;20583;-50
2022/10/21 03:30:04;;;;;;;13.90;8.07;;;8.70;99.90;;;;;;5028765;28;20120;-52
2022/10/21 03:32:29;;;;;;;15.50;8.60;;;8.70;99.90;;;;;;5007942;28;20119;-54
2022/10/21 03:34:55;;;;;;;16.77;9.00;;;8.70;99.90;;;;;;5028381;28;20360;-52
2022/10/21 03:37:21;;;;;;;10.50;6.95;;;8.70;99.90;;;;;;5008908;28;20509;-52
2022/10/21 03:39:46;;;;;;;10.57;7.10;;;8.80;99.90;;;;;;5028327;28;20214;-50
2022/10/21 03:42:11;;;;;;;12.70;8.27;;;8.70;99.90;;;;;;5015422;28;20034;-52
2022/10/21 03:44:37;;;;;;;12.55;7.53;;;8.80;99.90;;;;;;5007806;28;20109;-56
2022/10/21 03:47:02;;;;;;;17.10;9.02;;;8.80;99.90;;;;;;5007474;28;20508;-53
2022/10/21 03:49:28;;;;;;;15.25;9.07;;;8.70;99.90;;;;;;5009578;28;20041;-51
2022/10/21 03:51:53;;;;;;;14.25;10.00;;;8.70;99.90;;;;;;5008600;28;20108;-53
2022/10/21 03:54:19;;;;;;;15.50;9.85;;;8.70;99.90;;;;;;5009308;28;20033;-55
2022/10/21 03:56:46;;;;;;;16.40;8.98;;;8.70;99.90;;;;;;5007351;28;20072;-53
2022/10/21 03:59:12;;;;;;;15.82;9.07;;;8.60;99.90;;;;;;5009345;28;20030;-53
2022/10/21 04:01:37;;;;;;;15.55;9.10;;;8.60;99.90;;;;;;5024080;28;20416;-52
2022/10/21 04:04:03;;;;;;;13.73;8.85;;;8.60;99.90;;;;;;5008854;28;20100;-55
2022/10/21 04:06:28;;;;;;;14.63;8.85;;;8.60;99.90;;;;;;5026299;28;20099;-52
2022/10/21 04:08:54;;;;;;;12.45;7.75;;;8.60;99.90;;;;;;5028955;28;20075;-55
2022/10/21 04:11:19;;;;;;;12.02;7.15;;;8.60;99.90;;;;;;5009580;28;20402;-53
2022/10/21 04:13:45;;;;;;;11.85;7.35;;;8.60;99.90;;;;;;5007265;28;20044;-55
2022/10/21 04:16:14;;;;;;;12.07;8.07;;;8.60;99.90;;;;;;5027726;28;20041;-54
2022/10/21 04:18:39;;;;;;;14.13;9.10;;;8.60;99.90;;;;;;5006046;28;20035;-53
2022/10/21 04:21:05;;;;;;;15.45;9.88;;;8.60;99.90;;;;;;5020481;28;20427;-53
2022/10/21 04:23:30;;;;;;;13.73;8.63;;;8.60;99.90;;;;;;5009384;28;20041;-50
2022/10/21 04:25:56;;;;;;;16.02;9.93;;;8.60;99.90;;;;;;5025865;28;20859;-51
2022/10/21 04:28:21;;;;;;;17.60;10.15;;;8.50;99.90;;;;;;5002698;28;20042;-54
2022/10/21 04:30:49;;;;;;;17.48;8.80;;;8.50;99.90;;;;;;5027131;28;20029;-54
2022/10/21 04:33:14;;;;;;;16.08;9.95;;;8.50;99.90;;;;;;5005940;28;20080;-50
2022/10/21 04:35:40;;;;;;;18.75;10.23;;;8.50;99.90;;;;;;5007871;28;20524;-55
2022/10/21 04:38:05;;;;;;;14.05;9.25;;;8.40;99.90;;;;;;5002084;28;20391;-52
2022/10/21 04:40:31;;;;;;;15.93;9.38;;;8.40;99.90;;;;;;5019391;28;20022;-51
2022/10/21 04:42:57;;;;;;;12.40;9.10;;;8.40;99.90;;;;;;5014232;28;20034;-51
2022/10/21 04:45:22;;;;;;;16.08;10.05;;;8.30;99.90;;;;;;5028004;28;20110;-54
2022/10/21 04:47:48;;;;;;;15.90;9.15;;;8.30;99.90;;;;;;5018332;28;20037;-53
2022/10/21 04:50:13;;;;;;;16.42;10.68;;;8.20;99.90;;;;;;5009604;28;20061;-51
2022/10/21 04:52:39;;;;;;;17.52;11.02;;;8.20;99.90;;;;;;5017018;28;20034;-52
2022/10/21 04:55:05;;;;;;;16.50;9.75;;;8.20;99.90;;;;;;5028769;28;20485;-53
2022/10/21 04:57:30;;;;;;;18.08;10.52;;;8.10;99.90;;;;;;5004910;28;20473;-49
2022/10/21 04:59:56;;;;;;;15.93;10.75;;;8.10;99.90;;;;;;5016527;28;20089;-51
2022/10/21 05:02:21;;;;;;;20.48;10.10;;;8.10;99.90;;;;;;5004907;28;20486;-51
2022/10/21 05:04:47;;;;;;;18.40;11.13;;;8.00;99.90;;;;;;5006252;28;20037;-52
2022/10/21 05:07:13;;;;;;;17.23;10.18;;;8.00;99.90;;;;;;5011757;28;20022;-52
2022/10/21 05:09:38;;;;;;;19.08;11.20;;;8.10;99.90;;;;;;5006697;28;20494;-49
2022/10/21 05:12:04;;;;;;;15.50;10.15;;;8.00;99.90;;;;;;5005207;28;20045;-52
2022/10/21 05:14:29;;;;;;;16.83;10.60;;;8.00;99.90;;;;;;5008317;28;20038;-53
2022/10/21 05:16:54;;;;;;;21.95;11.65;;;8.10;99.90;;;;;;5022963;28;20041;-51
2022/10/21 05:19:20;;;;;;;14.85;10.00;;;8.10;99.90;;;;;;5008540;28;20548;-50
2022/10/21 05:21:46;;;;;;;15.38;10.65;;;8.10;99.90;;;;;;5025412;28;20037;-50
2022/10/21 05:24:12;;;;;;;16.50;10.63;;;8.10;99.90;;;;;;5024780;28;20025;-50
2022/10/21 05:26:37;;;;;;;16.13;10.70;;;8.20;99.90;;;;;;5006808;28;20033;-50
2022/10/21 05:29:03;;;;;;;17.42;11.80;;;8.20;99.90;;;;;;5028024;28;20134;-50
2022/10/21 05:31:28;;;;;;;21.67;11.10;;;8.20;99.90;;;;;;5008655;28;20030;-52
2022/10/21 05:33:54;;;;;;;16.35;11.00;;;8.30;99.90;;;;;;5006961;28;20038;-48
2022/10/21 05:36:19;;;;;;;20.35;11.30;;;8.30;99.90;;;;;;5026544;28;20561;-51
2022/10/21 05:38:45;;;;;;;19.88;11.70;;;8.30;99.90;;;;;;5009984;28;20034;-52
2022/10/21 05:41:10;;;;;;;17.45;11.70;;;8.30;99.90;;;;;;5030783;28;20516;-55
2022/10/21 05:43:37;;;;;;;20.67;11.73;;;8.30;99.90;;;;;;5010231;28;20044;-52
2022/10/21 05:46:02;;;;;;;24.60;11.68;;;8.40;99.90;;;;;;5029500;28;20116;-51
2022/10/21 05:48:28;;;;;;;16.10;9.57;;;8.40;99.90;;;;;;5010512;28;20160;-51
2022/10/21 05:50:54;;;;;;;16.85;10.35;;;8.50;99.90;;;;;;5030883;28;20026;-48
2022/10/21 05:53:22;;;;;;;17.40;10.82;;;8.50;99.90;;;;;;5010128;28;20034;-50
2022/10/21 05:55:56;;;;;;;15.95;10.50;;;8.50;99.90;;;;;;5030946;28;20022;-48
2022/10/21 05:58:23;;;;;;;15.00;10.18;;;8.50;99.90;;;;;;5010002;28;20030;-51
2022/10/21 06:00:49;;;;;;;20.73;11.50;;;8.50;99.90;;;;;;5030561;28;20231;-52
2022/10/21 06:03:15;;;;;;;18.08;10.70;;;8.60;99.90;;;;;;5009969;28;20034;-54
2022/10/21 06:05:40;;;;;;;17.35;9.65;;;8.60;99.90;;;;;;5030396;28;20041;-53
2022/10/21 06:08:06;;;;;;;17.13;10.02;;;8.60;99.90;;;;;;5010056;28;20445;-53
2022/10/21 06:10:31;;;;;;;20.10;10.93;;;8.60;99.90;;;;;;5030096;28;20075;-53
2022/10/21 06:12:57;;;;;;;17.27;10.13;;;8.70;99.90;;;;;;5019572;28;20072;-53
2022/10/21 06:15:22;;;;;;;14.02;9.75;;;8.70;99.90;;;;;;5011620;28;20091;-53
2022/10/21 06:17:48;;;;;;;12.63;8.32;;;8.80;99.90;;;;;;5028294;28;20037;-53
2022/10/21 06:20:13;;;;;;;12.55;8.63;;;8.80;99.90;;;;;;5011575;28;20079;-53
2022/10/21 06:22:39;;;;;;;18.45;9.90;;;8.80;99.90;;;;;;5024964;28;20099;-54
2022/10/21 06:25:04;;;;;;;18.23;11.13;;;8.80;99.90;;;;;;5030694;28;20113;-51
2022/10/21 06:27:30;;;;;;;17.65;10.30;;;8.80;99.90;;;;;;5015327;28;20036;-53
2022/10/21 06:29:55;;;;;;;15.50;10.00;;;8.80;99.90;;;;;;5030698;28;20052;-51
2022/10/21 06:32:21;;;;;;;15.43;9.68;;;8.90;99.90;;;;;;5013704;28;20366;-52
2022/10/21 06:34:46;;;;;;;12.57;8.88;;;8.90;99.90;;;;;;5029233;28;20393;-49
2022/10/21 06:37:12;;;;;;;16.75;10.13;;;8.90;99.90;;;;;;5014166;28;20048;-49
2022/10/21 06:39:37;;;;;;;14.32;9.23;;;8.90;99.90;;;;;;5010622;28;20454;-48
2022/10/21 06:42:03;;;;;;;15.00;9.63;;;9.00;99.90;;;;;;5027703;28;20033;-49
2022/10/21 06:44:28;;;;;;;15.95;9.43;;;9.00;99.90;;;;;;5029015;28;20095;-51
2022/10/21 06:46:54;;;;;;;20.65;10.02;;;9.10;99.90;;;;;;5009184;28;20520;-51
2022/10/21 06:49:19;;;;;;;13.27;9.50;;;9.10;99.90;;;;;;5030376;28;20550;-50
2022/10/21 06:51:44;;;;;;;16.48;9.38;;;9.10;99.90;;;;;;5011025;28;20161;-55
2022/10/21 06:54:10;;;;;;;15.02;9.30;;;9.20;99.90;;;;;;5009071;28;20125;-52
2022/10/21 06:56:37;;;;;;;16.75;9.73;;;9.20;99.90;;;;;;5029350;28;20033;-51
2022/10/21 06:59:03;;;;;;;15.90;9.45;;;9.30;99.90;;;;;;5008872;28;20034;-52
2022/10/21 07:01:31;;;;;;;17.33;10.10;;;9.40;99.90;;;;;;5029246;28;20056;-53
2022/10/21 07:03:57;;;;;;;15.18;9.13;;;9.50;99.90;;;;;;5008397;28;20053;-52
2022/10/21 07:06:23;;;;;;;13.85;9.32;;;9.60;99.90;;;;;;5029190;28;20494;-52
2022/10/21 07:08:49;;;;;;;12.85;9.55;;;9.60;99.90;;;;;;5007543;28;20034;-52
2022/10/21 07:11:14;;;;;;;15.00;9.73;;;9.70;99.90;;;;;;5029374;28;20025;-51
2022/10/21 07:13:40;;;;;;;14.75;9.80;;;9.70;99.90;;;;;;5008858;28;20030;-49
2022/10/21 07:16:26;;;;;;;14.45;9.30;;;9.80;99.90;;;;;;5029112;28;20038;-50
2022/10/21 07:18:52;;;;;;;12.15;9.88;;;9.90;99.90;;;;;;5003824;28;20033;-51
2022/10/21 07:21:20;;;;;;;11.57;8.57;;;10.00;99.90;;;;;;5029025;28;20060;-50
2022/10/21 07:23:50;;;;;;;12.68;7.68;;;10.00;99.90;;;;;;5002225;28;20042;-50
2022/10/21 07:26:16;;;;;;;13.70;8.35;;;10.10;99.90;;;;;;5028106;28;20033;-51
2022/10/21 07:28:46;;;;;;;15.50;8.57;;;10.20;99.90;;;;;;5006995;28;20065;-53
2022/10/21 07:31:12;;;;;;;13.63;8.82;;;10.20;99.90;;;;;;5029300;28;20397;-52
2022/10/21 07:33:38;;;;;;;14.98;8.43;;;10.20;99.90;;;;;;5008295;28;20097;-52
2022/10/21 07:36:06;;;;;;;11.90;8.48;;;10.20;99.90;;;;;;5028401;28;20030;-52
2022/10/21 07:38:32;;;;;;;12.45;8.68;;;10.20;99.90;;;;;;5000202;28;20029;-51
2022/10/21 07:40:58;;;;;;;11.88;8.30;;;10.30;99.90;;;;;;5028923;28;20034;-50
2022/10/21 07:43:23;;;;;;;13.35;9.32;;;10.30;99.90;;;;;;5018854;28;20103;-51
2022/10/21 07:45:49;;;;;;;13.30;8.52;;;10.40;99.90;;;;;;5010098;28;20555;-52
2022/10/21 07:48:14;;;;;;;14.82;9.48;;;10.40;99.90;;;;;;5025655;28;20100;-51
2022/10/21 07:50:40;;;;;;;12.13;7.90;;;10.40;99.90;;;;;;5009988;28;20038;-49
2022/10/21 07:53:06;;;;;;;10.93;7.88;;;10.50;99.90;;;;;;5026483;28;20048;-50
2022/10/21 07:55:31;;;;;;;9.88;7.53;;;10.50;99.90;;;;;;5009681;28;20034;-53
2022/10/21 07:57:57;;;;;;;12.48;7.05;;;10.60;99.90;;;;;;5026257;28;20387;-53
2022/10/21 08:00:23;;;;;;;9.75;7.22;;;10.70;99.90;;;;;;5028797;28;20057;-52
2022/10/21 08:02:53;;;;;;;10.65;7.80;;;10.70;99.90;;;;;;5013447;28;20040;-49
2022/10/21 08:05:19;;;;;;;13.43;8.18;;;10.80;99.90;;;;;;5029066;28;20041;-53
2022/10/21 08:07:44;;;;;;;9.27;6.80;;;10.90;99.90;;;;;;5012654;28;20524;-51
2022/10/21 08:10:10;;;;;;;11.15;6.90;;;10.90;99.90;;;;;;5028822;28;20025;-53
2022/10/21 08:12:35;;;;;;;9.60;7.70;;;11.00;99.90;;;;;;5011177;28;20037;-53
2022/10/21 08:15:01;;;;;;;13.88;7.85;;;11.10;99.90;;;;;;5028798;28;20104;-54
2022/10/21 08:17:26;;;;;;;11.68;7.53;;;11.20;99.90;;;;;;5008392;28;20030;-53
2022/10/21 08:19:52;;;;;;;10.13;6.68;;;11.30;99.90;;;;;;5029048;28;20021;-53
2022/10/21 08:22:17;;;;;;;11.43;7.38;;;11.40;99.90;;;;;;5007892;28;20030;-51
2022/10/21 08:24:43;;;;;;;11.10;8.80;;;11.50;99.90;;;;;;5023507;28;20044;-53
2022/10/21 08:27:08;;;;;;;9.45;7.88;;;11.50;99.90;;;;;;5009437;28;20083;-59
2022/10/21 08:29:33;;;;;;;13.85;8.45;;;11.60;99.90;;;;;;5026123;28;20393;-49
2022/10/21 08:31:59;;;;;;;11.65;6.90;;;11.70;99.90;;;;;;5009416;28;20029;-58
2022/10/21 08:34:24;;;;;;;11.98;8.00;;;11.80;99.90;;;;;;5008157;28;20550;-54
2022/10/21 08:36:50;;;;;;;11.45;7.80;;;11.80;99.90;;;;;;5021514;28;20053;-57
2022/10/21 08:39:15;;;;;;;13.13;7.93;;;11.80;99.90;;;;;;5023297;28;20523;-55
2022/10/21 08:42:03;;;;;;;8.75;6.30;;;11.90;99.90;;;;;;5009199;28;20034;-56
2022/10/21 08:44:46;;;;;;;15.07;7.40;;;11.90;99.90;;;;;;5008081;28;20514;-58
2022/10/21 08:47:43;;;;;;;11.23;6.60;;;11.90;99.90;;;;;;4989167;28;20038;-54
2022/10/21 08:50:17;;;;;;;10.80;7.13;;;11.90;99.90;;;;;;4989178;28;20054;-57
2022/10/21 08:52:55;;;;;;;12.35;6.80;;;12.10;99.90;;;;;;4994003;28;20032;-57
2022/10/21 08:55:22;;;;;;;12.02;7.53;;;12.20;99.90;;;;;;5028334;28;20014;-57
2022/10/21 08:57:49;;;;;;;8.63;6.20;;;12.40;99.90;;;;;;5010761;28;20495;-57
2022/10/21 09:00:20;;;;;;;12.73;6.43;;;12.70;99.90;;;;;;5028217;28;20033;-55
2022/10/21 09:03:03;;;;;;;7.97;6.18;;;12.90;99.90;;;;;;5010362;28;20057;-57
2022/10/21 09:05:40;;;;;;;11.05;6.80;;;13.10;99.90;;;;;;5028546;28;20061;-57
2022/10/21 09:08:17;;;;;;;13.32;6.70;;;13.20;99.90;;;;;;4999284;28;20033;-57
2022/10/21 09:10:53;;;;;;;10.52;6.10;;;13.40;99.90;;;;;;5029171;28;20389;-56
2022/10/21 09:13:51;;;;;;;10.30;6.88;;;13.60;99.90;;;;;;5006095;28;20053;-57
2022/10/21 09:16:35;;;;;;;22.70;13.55;;;13.70;99.90;;;;;;4992693;28;20673;-52
2022/10/21 09:19:28;;;;;;;17.80;11.55;;;13.70;99.90;;;;;;5004255;28;20041;-56
2022/10/21 09:22:10;;;;;;;12.20;9.05;;;13.70;99.90;;;;;;4992726;28;20018;-56
2022/10/21 09:25:04;;;;;;;11.85;8.60;;;13.60;99.90;;;;;;5005577;28;20041;-57
2022/10/21 09:27:30;;;;;;;13.48;8.00;;;13.50;99.90;;;;;;4991681;28;20038;-57
2022/10/21 09:29:59;;;;;;;8.65;6.38;;;13.40;99.90;;;;;;5031850;28;20369;-57
2022/10/21 09:32:38;;;;;;;11.27;6.40;;;13.40;99.90;;;;;;5011875;28;20029;-55
2022/10/21 09:35:21;;;;;;;11.35;8.70;;;13.60;99.90;;;;;;5011904;28;20131;-56
2022/10/21 09:37:54;;;;;;;14.65;8.48;;;13.80;99.90;;;;;;4995752;28;20499;-58
2022/10/21 09:40:27;;;;;;;15.80;7.68;;;13.90;99.90;;;;;;5031672;28;20029;-57
2022/10/21 09:42:57;;;;;;;12.10;8.80;;;14.00;99.90;;;;;;4997099;28;20503;-57
2022/10/21 09:45:27;;;;;;;9.82;7.10;;;14.10;99.90;;;;;;5031609;28;20446;-58
2022/10/21 09:47:58;;;;;;;12.95;7.07;;;14.20;99.90;;;;;;5013057;28;20076;-57
2022/10/21 09:50:25;;;;;;;10.10;7.68;;;14.30;99.30;;;;;;5024727;28;20030;-57
2022/10/21 09:52:59;;;;;;;9.20;6.68;;;14.30;99.90;;;;;;5025072;28;20041;-56
2022/10/21 09:55:26;;;;;;;7.47;6.53;;;14.30;99.90;;;;;;5010504;28;20088;-56
2022/10/21 09:57:59;;;;;;;9.00;6.43;;;14.30;99.90;;;;;;5025021;28;20041;-53
2022/10/21 10:00:49;;;;;;;11.40;7.30;;;14.20;99.90;;;;;;5010566;28;20030;-56
2022/10/21 10:03:35;;;;;;;8.65;6.93;;;14.40;99.90;;;;;;5003342;28;20034;-57
2022/10/21 10:06:02;;;;;;;10.52;6.72;;;14.40;99.90;;;;;;5010683;28;20026;-57
2022/10/21 10:08:30;;;;;;;11.00;7.00;;;14.50;99.90;;;;;;5027403;28;20036;-57
2022/10/21 10:11:08;;;;;;;11.57;6.20;;;14.50;99.60;;;;;;5030315;28;20029;-55
2022/10/21 10:13:35;;;;;;;11.90;6.32;;;14.70;99.90;;;;;;5017040;28;20038;-57
2022/10/21 10:16:26;;;;;;;12.98;6.85;;;14.80;99.40;;;;;;5010143;28;20040;-57
2022/10/21 10:19:09;;;;;;;10.50;6.20;;;14.90;97.50;;;;;;5007051;28;20382;-54
2022/10/21 10:21:35;;;;;;;11.00;6.07;;;15.00;99.80;;;;;;4990163;28;20065;-57
2022/10/21 10:24:01;;;;;;;9.55;7.25;;;15.10;96.80;;;;;;5009223;28;20070;-55
2022/10/21 10:26:33;;;;;;;11.00;7.00;;;15.10;92.80;;;;;;5027490;28;20033;-55
2022/10/21 10:29:14;;;;;;;17.80;10.05;;;15.20;94.20;;;;;;5019723;28;20035;-57
2022/10/21 10:31:46;;;;;;;36.35;20.15;;;15.30;95.90;;;;;;4991333;28;20387;-55
2022/10/21 10:34:20;;;;;;;34.22;19.83;;;15.30;90.20;;;;;;5002196;28;20482;-54
2022/10/21 10:36:48;;;;;;;20.27;11.25;;;15.20;93.40;;;;;;5002235;28;20121;-55
2022/10/21 10:39:27;;;;;;;19.83;13.00;;;15.10;92.70;;;;;;5028569;28;20120;-54
2022/10/21 10:41:53;;;;;;;19.33;10.88;;;15.00;92.40;;;;;;4991518;28;20110;-55
2022/10/21 10:44:34;;;;;;;22.30;12.75;;;15.10;94.60;;;;;;5014123;28;20141;-56
2022/10/21 10:47:01;;;;;;;16.20;10.15;;;15.10;91.90;;;;;;4991437;28;20039;-53
2022/10/21 10:49:35;;;;;;;12.95;8.23;;;15.10;92.40;;;;;;5013606;28;20491;-56
2022/10/21 10:52:10;;;;;;;11.60;7.88;;;15.00;93.00;;;;;;4991844;28;20117;-54
2022/10/21 10:54:39;;;;;;;12.10;6.78;;;15.00;91.80;;;;;;5012074;28;20064;-53
2022/10/21 10:57:16;;;;;;;9.73;6.00;;;14.90;93.90;;;;;;5030061;28;20513;-54
2022/10/21 10:59:45;;;;;;;10.25;6.05;;;15.00;94.40;;;;;;5004407;28;20111;-54
2022/10/21 11:02:11;;;;;;;6.80;5.18;;;15.00;94.90;;;;;;5020247;28;20037;-54
2022/10/21 11:05:05;;;;;;;9.20;5.80;;;15.10;95.20;;;;;;5007933;28;20033;-57
2022/10/21 11:07:43;;;;;;;7.78;6.28;;;15.20;94.20;;;;;;5029959;28;20397;-53
2022/10/21 11:10:32;;;;;;;8.05;5.65;;;15.20;94.70;;;;;;5008581;28;20141;-56
2022/10/21 11:12:59;;;;;;;9.35;6.22;;;15.30;94.10;;;;;;4992025;28;20368;-56
2022/10/21 11:15:55;;;;;;;8.88;6.25;;;15.30;93.40;;;;;;5012860;28;20030;-58
2022/10/21 11:18:31;;;;;;;8.88;6.03;;;15.30;91.50;;;;;;4996672;28;20567;-58
2022/10/21 11:21:42;;;;;;;8.40;5.47;;;15.40;93.10;;;;;;5030387;28;20041;-56
2022/10/21 11:24:33;;;;;;;8.82;6.05;;;15.30;93.60;;;;;;4987376;28;20092;-55
2022/10/21 11:27:31;;;;;;;12.13;6.10;;;15.40;92.70;;;;;;4990869;28;20038;-56
2022/10/21 11:30:11;;;;;;;9.13;6.30;;;15.40;93.10;;;;;;5005783;28;20037;-56
2022/10/21 11:32:51;;;;;;;10.13;6.63;;;15.30;92.30;;;;;;4990428;28;20030;-55
2022/10/21 11:35:24;;;;;;;9.02;6.25;;;15.20;93.20;;;;;;4990240;28;20038;-55
2022/10/21 11:37:56;;;;;;;13.60;6.22;;;15.20;94.90;;;;;;4990447;28;20046;-55
2022/10/21 11:40:39;;;;;;;9.32;6.70;;;15.10;95.20;;;;;;4990310;28;20045;-54
2022/10/21 11:43:26;;;;;;;8.32;6.43;;;15.00;96.00;;;;;;4990213;28;20023;-56
2022/10/21 11:46:10;;;;;;;8.52;5.43;;;15.00;97.30;;;;;;5010091;28;20022;-55
2022/10/21 11:49:14;;;;;;;10.05;6.18;;;15.00;97.90;;;;;;4999804;28;20049;-55
2022/10/21 11:51:57;;;;;;;7.00;5.35;;;15.10;97.50;;;;;;4990023;28;20042;-56
2022/10/21 11:54:41;;;;;;;6.38;5.43;;;15.30;96.70;;;;;;5011863;28;20036;-56
2022/10/21 11:57:50;;;;;;;7.95;5.32;;;15.50;96.50;;;;;;5010372;28;20034;-53
2022/10/21 12:00:17;;;;;;;9.02;5.82;;;15.60;94.70;;;;;;5007412;28;20038;-56
2022/10/21 12:02:44;;;;;;;6.88;5.00;;;15.70;93.80;;;;;;5028841;28;20510;-56
2022/10/21 12:05:29;;;;;;;9.45;6.13;;;15.90;94.90;;;;;;5007995;28;20124;-55
2022/10/21 12:08:06;;;;;;;8.05;6.18;;;15.90;93.00;;;;;;4988768;28;20033;-56
2022/10/21 12:10:44;;;;;;;5.47;4.70;;;16.00;94.30;;;;;;4989976;28;20438;-56
2022/10/21 12:13:20;;;;;;;8.27;5.40;;;16.20;94.90;;;;;;4991182;28;20514;-53
2022/10/21 12:15:51;;;;;;;8.63;4.97;;;16.20;93.00;;;;;;5029268;28;20057;-55
2022/10/21 12:18:20;;;;;;;8.70;5.13;;;16.30;93.00;;;;;;4992779;28;20054;-55
2022/10/21 12:20:49;;;;;;;8.75;5.43;;;16.30;92.20;;;;;;5029105;28;20032;-56
2022/10/21 12:23:19;;;;;;;7.07;5.32;;;16.30;91.30;;;;;;5009527;28;20643;-51
2022/10/21 12:26:02;;;;;;;5.57;4.80;;;16.30;89.10;;;;;;5009385;28;20129;-52
2022/10/21 12:28:49;;;;;;;6.82;4.97;;;16.20;85.10;;;;;;4994771;28;20116;-50
2022/10/21 12:31:14;;;;;;;8.70;5.00;;;16.10;85.80;;;;;;5027748;28;20029;-53
2022/10/21 12:33:43;;;;;;;6.70;5.30;;;16.10;88.60;;;;;;5013017;28;20143;-54
2022/10/21 12:36:22;;;;;;;10.05;5.10;;;15.90;88.90;;;;;;5028291;28;20028;-51
2022/10/21 12:38:50;;;;;;;9.57;4.60;;;15.90;88.60;;;;;;5012332;28;20037;-54
2022/10/21 12:41:33;;;;;;;7.20;4.90;;;15.80;90.40;;;;;;5029118;28;20021;-51
2022/10/21 12:44:02;;;;;;;6.68;4.82;;;15.70;88.30;;;;;;5014959;28;20030;-53
2022/10/21 12:46:43;;;;;;;8.80;4.75;;;15.60;90.20;;;;;;5016020;28;20033;-54
2022/10/21 12:49:34;;;;;;;5.82;4.60;;;15.60;90.50;;;;;;5033411;28;20063;-49
2022/10/21 12:52:19;;;;;;;9.32;4.78;;;15.60;91.40;;;;;;4995888;28;20117;-54
2022/10/21 12:55:02;;;;;;;6.45;5.25;;;15.50;90.80;;;;;;5007734;28;20038;-53
2022/10/21 12:57:40;;;;;;;6.72;4.95;;;15.40;90.40;;;;;;5050376;28;20025;-54
2022/10/21 13:00:21;;;;;;;8.98;5.03;;;15.40;90.80;;;;;;5013892;28;20030;-53
2022/10/21 13:03:01;;;;;;;9.32;4.68;;;15.30;91.70;;;;;;5034277;28;20045;-53